createdAt,value
2022-09-28T00:02:15.817Z,7.80
2022-09-28T00:04:42.681Z,7.90
2022-09-28T00:07:09.459Z,7.80
2022-09-28T00:09:36.237Z,7.80
2022-09-28T00:12:04.385Z,7.90
2022-09-28T00:14:32.370Z,7.90
2022-09-28T00:16:59.170Z,7.90
2022-09-28T00:19:25.969Z,7.90
2022-09-28T00:21:52.794Z,7.90
2022-09-28T00:24:24.016Z,7.80
2022-09-28T00:26:56.603Z,7.90
2022-09-28T00:29:31.820Z,7.80
2022-09-28T00:32:02.963Z,7.80
2022-09-28T00:34:32.491Z,7.80
2022-09-28T00:37:00.578Z,7.70
2022-09-28T00:39:27.514Z,7.70
2022-09-28T00:41:54.808Z,7.60
2022-09-28T00:44:41.977Z,7.60
2022-09-28T00:47:31.218Z,7.60
2022-09-28T00:50:04.019Z,7.60
2022-09-28T00:53:02.924Z,7.50
2022-09-28T00:55:46.227Z,7.50
2022-09-28T00:58:18.091Z,7.40
2022-09-28T01:00:45.112Z,7.40
2022-09-28T01:03:14.243Z,7.40
2022-09-28T01:05:41.360Z,7.30
2022-09-28T01:08:10.050Z,7.20
2022-09-28T01:10:38.590Z,7.20
2022-09-28T01:13:05.642Z,7.20
2022-09-28T01:15:49.415Z,7.20
2022-09-28T01:18:40.825Z,7.20
2022-09-28T01:21:18.739Z,7.10
2022-09-28T01:24:11.935Z,7.10
2022-09-28T01:26:48.714Z,7.20
2022-09-28T01:30:04.518Z,7.10
2022-09-28T01:32:54.633Z,7.10
2022-09-28T01:35:27.042Z,7.20
2022-09-28T01:38:25.978Z,7.20
2022-09-28T01:40:53.829Z,7.20
2022-09-28T01:43:25.096Z,7.20
2022-09-28T01:46:13.343Z,7.20
2022-09-28T01:48:46.283Z,7.20
2022-09-28T01:51:23.943Z,7.30
2022-09-28T01:53:55.377Z,7.20
2022-09-28T01:56:34.908Z,7.20
2022-09-28T01:59:16.580Z,7.20
2022-09-28T02:01:49.763Z,7.20
2022-09-28T02:04:32.597Z,7.20
2022-09-28T02:07:31.727Z,7.30
2022-09-28T02:10:09.686Z,7.30
2022-09-28T02:12:43.645Z,7.20
2022-09-28T02:15:43.154Z,7.30
2022-09-28T02:18:10.566Z,7.20
2022-09-28T02:20:41.102Z,7.30
2022-09-28T02:23:08.778Z,7.30
2022-09-28T02:25:43.069Z,7.20
2022-09-28T02:28:13.379Z,7.30
2022-09-28T02:30:42.485Z,7.30
2022-09-28T02:33:20.123Z,7.20
2022-09-28T02:35:48.019Z,7.20
2022-09-28T02:38:16.442Z,7.20
2022-09-28T02:40:50.377Z,7.20
2022-09-28T02:43:39.143Z,7.20
2022-09-28T02:46:48.454Z,7.20
2022-09-28T02:49:51.547Z,7.20
2022-09-28T02:52:56.616Z,7.30
2022-09-28T02:55:46.267Z,7.30
2022-09-28T02:58:30.531Z,7.30
2022-09-28T03:01:11.462Z,7.30
2022-09-28T03:03:53.160Z,7.40
2022-09-28T03:06:19.924Z,7.40
2022-09-28T03:09:03.217Z,7.40
2022-09-28T03:11:45.190Z,7.40
2022-09-28T03:14:12.447Z,7.40
2022-09-28T03:16:51.198Z,7.40
2022-09-28T03:19:24.870Z,7.40
2022-09-28T03:21:52.142Z,7.50
2022-09-28T03:24:19.094Z,7.50
2022-09-28T03:26:45.893Z,7.50
2022-09-28T03:29:13.953Z,7.60
2022-09-28T03:31:44.285Z,7.60
2022-09-28T03:34:11.862Z,7.60
2022-09-28T03:36:38.643Z,7.50
2022-09-28T03:39:06.048Z,7.60
2022-09-28T03:41:32.872Z,7.50
2022-09-28T03:43:59.836Z,7.50
2022-09-28T03:46:28.543Z,7.50
2022-09-28T03:49:00.241Z,7.50
2022-09-28T03:51:29.019Z,7.40
2022-09-28T03:53:55.798Z,7.50
2022-09-28T03:56:22.818Z,7.50
2022-09-28T03:58:49.778Z,7.50
2022-09-28T04:01:18.048Z,7.50
2022-09-28T04:03:47.724Z,7.50
2022-09-28T04:06:14.761Z,7.50
2022-09-28T04:08:43.486Z,7.50
2022-09-28T04:11:10.907Z,7.50
2022-09-28T04:13:37.854Z,7.50
2022-09-28T04:16:07.327Z,7.50
2022-09-28T04:18:35.421Z,7.60
2022-09-28T04:21:22.581Z,7.60
2022-09-28T04:24:04.799Z,7.60
2022-09-28T04:26:31.664Z,7.60
2022-09-28T04:29:16.705Z,7.50
2022-09-28T04:31:52.808Z,7.60
2022-09-28T04:34:23.418Z,7.60
2022-09-28T04:36:51.190Z,7.60
2022-09-28T04:39:19.508Z,7.50
2022-09-28T04:41:53.037Z,7.60
2022-09-28T04:44:19.850Z,7.50
2022-09-28T04:46:47.904Z,7.50
2022-09-28T04:49:30.056Z,7.50
2022-09-28T04:52:07.872Z,7.50
2022-09-28T04:54:35.246Z,7.50
2022-09-28T04:57:03.732Z,7.50
2022-09-28T04:59:30.688Z,7.50
2022-09-28T05:01:57.575Z,7.40
2022-09-28T05:04:47.262Z,7.40
2022-09-28T05:07:32.760Z,7.40
2022-09-28T05:10:01.947Z,7.40
2022-09-28T05:12:31.151Z,7.40
2022-09-28T05:15:00.579Z,7.40
2022-09-28T05:17:27.547Z,7.40
2022-09-28T05:20:00.714Z,7.40
2022-09-28T05:22:27.523Z,7.40
2022-09-28T05:24:55.492Z,7.30
2022-09-28T05:27:24.128Z,7.40
2022-09-28T05:30:00.082Z,7.40
2022-09-28T05:33:00.168Z,7.50
2022-09-28T05:35:34.659Z,7.50
2022-09-28T05:38:05.565Z,7.50
2022-09-28T05:40:33.297Z,7.60
2022-09-28T05:43:01.950Z,7.60
2022-09-28T05:45:29.959Z,7.60
2022-09-28T05:47:57.062Z,7.60
2022-09-28T05:50:24.033Z,7.60
2022-09-28T05:53:06.039Z,7.60
2022-09-28T05:55:33.807Z,7.60
2022-09-28T05:58:02.217Z,7.60
2022-09-28T06:00:31.041Z,7.60
2022-09-28T06:03:08.022Z,7.60
2022-09-28T06:05:36.611Z,7.60
2022-09-28T06:08:05.372Z,7.60
2022-09-28T06:10:33.417Z,7.60
2022-09-28T06:13:01.672Z,7.70
2022-09-28T06:15:30.360Z,7.70
2022-09-28T06:18:00.012Z,7.70
2022-09-28T06:20:45.668Z,7.70
2022-09-28T06:23:16.839Z,7.70
2022-09-28T06:25:43.900Z,7.80
2022-09-28T06:28:12.968Z,7.80
2022-09-28T06:30:40.813Z,7.70
2022-09-28T06:33:13.415Z,7.80
2022-09-28T06:35:41.118Z,7.80
2022-09-28T06:38:08.451Z,7.80
2022-09-28T06:40:36.283Z,7.80
2022-09-28T06:43:10.430Z,7.80
2022-09-28T06:45:55.878Z,7.80
2022-09-28T06:48:41.284Z,7.80
2022-09-28T06:51:11.723Z,7.80
2022-09-28T06:54:13.791Z,7.70
2022-09-28T06:56:47.891Z,7.80
2022-09-28T06:59:14.948Z,7.80
2022-09-28T07:01:41.922Z,7.90
2022-09-28T07:04:18.955Z,7.80
2022-09-28T07:07:14.627Z,7.90
2022-09-28T07:10:01.108Z,7.90
2022-09-28T07:12:35.873Z,8.00
2022-09-28T07:15:12.194Z,8.10
2022-09-28T07:17:52.827Z,8.10
2022-09-28T07:20:25.361Z,8.10
2022-09-28T07:22:57.955Z,8.20
2022-09-28T07:25:30.172Z,8.30
2022-09-28T07:28:21.150Z,8.40
2022-09-28T07:31:07.551Z,8.60
2022-09-28T07:34:04.286Z,8.60
2022-09-28T07:36:40.720Z,8.60
2022-09-28T07:39:07.594Z,8.40
2022-09-28T07:41:36.000Z,8.50
2022-09-28T07:44:06.280Z,8.70
2022-09-28T07:46:35.586Z,8.60
2022-09-28T07:49:09.943Z,8.60
2022-09-28T07:52:17.306Z,8.60
2022-09-28T07:55:07.313Z,8.60
2022-09-28T07:58:09.955Z,8.50
2022-09-28T08:00:48.221Z,8.40
2022-09-28T08:03:17.192Z,8.30
2022-09-28T08:05:45.771Z,8.20
2022-09-28T08:08:13.331Z,8.10
2022-09-28T08:10:46.496Z,8.10
2022-09-28T08:13:40.544Z,8.10
2022-09-28T08:16:20.922Z,8.10
2022-09-28T08:18:58.423Z,8.10
2022-09-28T08:21:54.955Z,8.10
2022-09-28T08:24:24.013Z,8.10
2022-09-28T08:26:51.254Z,8.20
2022-09-28T08:29:18.193Z,8.30
2022-09-28T08:31:50.869Z,8.30
2022-09-28T08:34:40.312Z,8.20
2022-09-28T08:37:16.128Z,8.30
2022-09-28T08:40:01.533Z,8.50
2022-09-28T08:42:41.799Z,8.50
2022-09-28T08:45:35.970Z,8.50
2022-09-28T08:48:49.022Z,8.60
2022-09-28T08:51:58.187Z,8.60
2022-09-28T08:55:13.727Z,8.70
2022-09-28T08:57:52.621Z,8.80
2022-09-28T09:00:33.781Z,8.80
2022-09-28T09:03:35.627Z,8.60
2022-09-28T09:06:39.495Z,8.50
2022-09-28T09:10:02.612Z,8.60
2022-09-28T09:12:36.890Z,8.60
2022-09-28T09:15:19.853Z,8.70
2022-09-28T09:17:55.330Z,8.70
2022-09-28T09:20:52.451Z,8.70
2022-09-28T09:23:44.737Z,8.80
2022-09-28T09:26:22.628Z,8.90
2022-09-28T09:29:10.174Z,9.00
2022-09-28T09:31:59.574Z,9.00
2022-09-28T09:34:51.205Z,9.00
2022-09-28T09:38:00.187Z,9.00
2022-09-28T09:41:07.356Z,8.90
2022-09-28T09:44:21.388Z,9.00
2022-09-28T09:47:06.131Z,8.90
2022-09-28T09:50:15.087Z,8.90
2022-09-28T09:52:57.796Z,8.90
2022-09-28T09:55:37.208Z,8.70
2022-09-28T09:58:28.652Z,8.60
2022-09-28T10:01:09.358Z,8.60
2022-09-28T10:03:58.966Z,8.70
2022-09-28T10:06:37.347Z,8.80
2022-09-28T10:09:10.895Z,9.10
2022-09-28T10:11:44.199Z,9.30
2022-09-28T10:14:17.176Z,9.40
2022-09-28T10:16:54.284Z,9.70
2022-09-28T10:19:43.302Z,9.80
2022-09-28T10:22:49.935Z,10.00
2022-09-28T10:25:18.652Z,10.50
2022-09-28T10:27:49.374Z,10.80
2022-09-28T10:30:25.393Z,11.20
2022-09-28T10:32:59.068Z,10.90
2022-09-28T10:35:40.207Z,10.80
2022-09-28T10:38:18.593Z,10.60
2022-09-28T10:40:56.954Z,10.80
2022-09-28T10:44:08.896Z,10.80
2022-09-28T10:47:04.260Z,10.90
2022-09-28T10:49:48.433Z,10.70
2022-09-28T10:52:36.556Z,11.10
2022-09-28T10:55:32.301Z,11.40
2022-09-28T10:58:00.750Z,11.90
2022-09-28T11:00:42.835Z,12.60
2022-09-28T11:03:24.671Z,12.80
2022-09-28T11:06:02.919Z,12.50
2022-09-28T11:08:35.837Z,12.20
2022-09-28T11:11:13.159Z,12.20
2022-09-28T11:13:49.380Z,12.20
2022-09-28T11:16:30.749Z,11.90
2022-09-28T11:19:05.991Z,11.80
2022-09-28T11:21:42.616Z,11.70
2022-09-28T11:24:23.672Z,11.80
2022-09-28T11:27:02.129Z,11.80
2022-09-28T11:29:46.124Z,12.00
2022-09-28T11:32:43.940Z,12.10
2022-09-28T11:35:37.454Z,12.10
2022-09-28T11:38:04.584Z,12.40
2022-09-28T11:41:13.565Z,12.20
2022-09-28T11:43:47.003Z,12.30
2022-09-28T11:46:19.708Z,12.50
2022-09-28T11:48:52.993Z,12.90
2022-09-28T11:51:31.617Z,12.30
2022-09-28T11:54:38.966Z,12.80
2022-09-28T11:57:11.886Z,12.70
2022-09-28T12:00:15.974Z,12.20
2022-09-28T12:03:09.330Z,12.20
2022-09-28T12:05:57.144Z,12.20
2022-09-28T12:08:28.788Z,12.60
2022-09-28T12:11:12.951Z,13.00
2022-09-28T12:14:01.401Z,13.00
2022-09-28T12:17:04.336Z,13.30
2022-09-28T12:19:33.485Z,13.90
2022-09-28T12:22:05.227Z,14.30
2022-09-28T12:24:43.990Z,14.80
2022-09-28T12:27:16.625Z,15.30
2022-09-28T12:30:04.049Z,15.60
2022-09-28T12:32:49.689Z,15.40
2022-09-28T12:35:29.313Z,14.90
2022-09-28T12:38:14.630Z,15.60
2022-09-28T12:41:32.023Z,16.00
2022-09-28T12:44:25.921Z,15.60
2022-09-28T12:47:17.369Z,15.00
2022-09-28T12:53:25.835Z,14.30
2022-09-28T12:56:04.085Z,13.50
2022-09-28T12:58:42.039Z,13.00
2022-09-28T13:01:27.554Z,12.30
2022-09-28T13:04:14.908Z,11.90
2022-09-28T13:06:41.721Z,11.60
2022-09-28T13:09:29.409Z,11.40
2022-09-28T13:12:07.862Z,10.80
2022-09-28T13:14:37.503Z,10.40
2022-09-28T13:17:37.762Z,10.00
2022-09-28T13:20:26.882Z,9.70
2022-09-28T13:23:01.687Z,9.40
2022-09-28T13:25:34.251Z,9.30
2022-09-28T13:28:05.774Z,9.10
2022-09-28T13:30:36.259Z,9.00
2022-09-28T13:33:05.916Z,9.00
2022-09-28T13:35:33.446Z,8.90
2022-09-28T13:38:16.210Z,9.00
2022-09-28T13:41:13.778Z,8.90
2022-09-28T13:44:13.218Z,8.80
2022-09-28T13:46:45.833Z,8.80
2022-09-28T13:49:19.529Z,8.70
2022-09-28T13:51:55.437Z,8.70
2022-09-28T13:55:01.278Z,8.70
2022-09-28T13:57:41.732Z,8.90
2022-09-28T14:00:11.903Z,8.90
2022-09-28T14:02:51.694Z,9.00
2022-09-28T14:05:27.150Z,9.00
2022-09-28T14:08:08.894Z,9.00
2022-09-28T14:10:56.455Z,9.10
2022-09-28T14:14:05.042Z,9.30
2022-09-28T14:16:33.762Z,9.30
2022-09-28T14:19:24.350Z,9.20
2022-09-28T14:22:00.022Z,9.20
2022-09-28T14:24:45.154Z,9.20
2022-09-28T14:27:40.212Z,9.30
2022-09-28T14:30:21.698Z,9.40
2022-09-28T14:32:59.722Z,9.50
2022-09-28T14:35:40.057Z,9.70
2022-09-28T14:38:40.572Z,10.00
2022-09-28T14:41:33.753Z,10.20
2022-09-28T14:44:14.309Z,10.50
2022-09-28T14:46:45.885Z,11.00
2022-09-28T14:49:36.308Z,11.80
2022-09-28T14:52:03.844Z,12.30
2022-09-28T14:54:45.288Z,12.50
2022-09-28T14:57:17.970Z,13.00
2022-09-28T14:59:46.669Z,13.30
2022-09-28T15:02:42.575Z,13.50
2022-09-28T15:05:14.589Z,13.70
2022-09-28T15:07:48.076Z,13.90
2022-09-28T15:10:32.479Z,14.10
2022-09-28T15:13:01.839Z,14.30
2022-09-28T15:15:33.826Z,14.40
2022-09-28T15:18:13.415Z,13.90
2022-09-28T15:20:42.084Z,13.20
2022-09-28T15:23:40.574Z,12.60
2022-09-28T15:26:21.098Z,12.10
2022-09-28T15:28:47.948Z,11.80
2022-09-28T15:31:21.047Z,11.50
2022-09-28T15:34:07.064Z,11.40
2022-09-28T15:36:39.875Z,11.30
2022-09-28T15:39:18.630Z,11.40
2022-09-28T15:41:47.864Z,11.50
2022-09-28T15:44:29.460Z,11.50
2022-09-28T15:47:14.998Z,11.50
2022-09-28T15:49:58.659Z,11.50
2022-09-28T15:52:25.538Z,11.30
2022-09-28T15:54:52.532Z,11.20
2022-09-28T15:57:35.910Z,11.20
2022-09-28T16:00:06.010Z,11.20
2022-09-28T16:02:38.852Z,11.10
2022-09-28T16:05:48.886Z,11.00
2022-09-28T16:08:27.318Z,11.10
2022-09-28T16:11:15.665Z,11.00
2022-09-28T16:13:52.874Z,10.90
2022-09-28T16:16:25.287Z,10.80
2022-09-28T16:18:52.953Z,10.70
2022-09-28T16:21:26.159Z,10.60
2022-09-28T16:23:58.184Z,10.50
2022-09-28T16:26:34.443Z,10.50
2022-09-28T16:29:08.626Z,10.40
2022-09-28T16:31:36.864Z,10.40
2022-09-28T16:34:09.551Z,10.30
2022-09-28T16:36:45.258Z,10.30
2022-09-28T16:39:13.486Z,10.40
2022-09-28T16:41:44.207Z,10.50
2022-09-28T16:44:30.674Z,10.40
2022-09-28T16:46:58.494Z,10.40
2022-09-28T16:49:26.834Z,10.30
2022-09-28T16:51:53.770Z,10.10
2022-09-28T16:54:43.236Z,9.90
2022-09-28T16:57:12.609Z,9.70
2022-09-28T16:59:39.540Z,9.50
2022-09-28T17:02:42.167Z,9.40
2022-09-28T17:05:06.373Z,9.10
2022-09-28T17:07:33.821Z,8.90
2022-09-28T17:10:00.599Z,8.70
2022-09-28T17:12:28.955Z,8.50
2022-09-28T17:14:55.790Z,8.40
2022-09-28T17:17:22.801Z,8.30
2022-09-28T17:19:49.649Z,8.20
2022-09-28T17:22:16.818Z,8.10
2022-09-28T17:24:45.590Z,8.00
2022-09-28T17:27:18.446Z,8.00
2022-09-28T17:29:45.279Z,7.90
2022-09-28T17:32:18.649Z,7.80
2022-09-28T17:34:55.813Z,7.60
2022-09-28T17:37:28.288Z,7.60
2022-09-28T17:39:55.123Z,7.60
2022-09-28T17:42:21.990Z,7.50
2022-09-28T17:44:48.795Z,7.60
2022-09-28T17:47:15.635Z,7.60
2022-09-28T17:49:46.107Z,7.60
2022-09-28T17:52:13.130Z,7.60
2022-09-28T17:54:39.926Z,7.50
2022-09-28T17:57:06.798Z,7.50
2022-09-28T17:59:33.612Z,7.50
2022-09-28T18:02:02.340Z,7.50
2022-09-28T18:04:50.827Z,7.50
2022-09-28T18:07:17.280Z,7.60
2022-09-28T18:09:44.158Z,7.60
2022-09-28T18:12:11.173Z,7.50
2022-09-28T18:14:39.905Z,7.50
2022-09-28T18:17:06.816Z,7.60
2022-09-28T18:19:33.737Z,7.70
2022-09-28T18:22:01.578Z,7.80
2022-09-28T18:24:29.610Z,7.90
2022-09-28T18:26:56.520Z,8.00
2022-09-28T18:29:23.500Z,8.00
2022-09-28T18:31:50.730Z,8.00
2022-09-28T18:34:17.862Z,8.00
2022-09-28T18:36:44.974Z,8.10
2022-09-28T18:39:11.921Z,8.10
2022-09-28T18:41:38.825Z,8.10
2022-09-28T18:44:05.835Z,8.10
2022-09-28T18:46:36.746Z,8.10
2022-09-28T18:49:04.899Z,8.10
2022-09-28T18:51:32.054Z,8.10
2022-09-28T18:54:00.395Z,8.10
2022-09-28T18:56:27.273Z,8.10
2022-09-28T18:58:54.186Z,8.10
2022-09-28T19:01:30.373Z,8.10
2022-09-28T19:04:02.325Z,8.10
2022-09-28T19:06:29.846Z,8.00
2022-09-28T19:08:57.772Z,8.00
2022-09-28T19:11:25.578Z,8.00
2022-09-28T19:13:54.426Z,7.90
2022-09-28T19:16:24.298Z,7.90
2022-09-28T19:18:53.801Z,7.80
2022-09-28T19:21:21.552Z,7.70
2022-09-28T19:23:49.992Z,7.70
2022-09-28T19:26:27.675Z,7.60
2022-09-28T19:28:57.054Z,7.60
2022-09-28T19:31:25.365Z,7.60
2022-09-28T19:33:52.394Z,7.70
2022-09-28T19:36:24.274Z,7.70
2022-09-28T19:38:52.962Z,7.70
2022-09-28T19:41:43.582Z,7.70
2022-09-28T19:44:24.554Z,7.70
2022-09-28T19:46:56.014Z,7.60
2022-09-28T19:49:24.424Z,7.60
2022-09-28T19:52:13.741Z,7.50
2022-09-28T19:54:48.522Z,7.50
2022-09-28T19:57:15.824Z,7.50
2022-09-28T19:59:43.143Z,7.60
2022-09-28T20:02:11.028Z,7.60
2022-09-28T20:04:38.575Z,7.60
2022-09-28T20:07:05.990Z,7.60
2022-09-28T20:09:33.086Z,7.60
2022-09-28T20:12:00.179Z,7.40
2022-09-28T20:14:32.032Z,7.40
2022-09-28T20:17:01.223Z,7.30
2022-09-28T20:19:28.079Z,7.30
2022-09-28T20:21:58.578Z,7.30
2022-09-28T20:24:25.646Z,7.20
2022-09-28T20:26:52.524Z,7.20
2022-09-28T20:29:19.556Z,7.20
2022-09-28T20:31:46.635Z,7.20
2022-09-28T20:34:13.770Z,7.30
2022-09-28T20:36:42.435Z,7.30
2022-09-28T20:39:11.017Z,7.30
2022-09-28T20:41:37.949Z,7.20
2022-09-28T20:44:06.566Z,7.30
2022-09-28T20:46:36.451Z,7.20
2022-09-28T20:49:04.579Z,7.20
2022-09-28T20:51:32.013Z,7.20
2022-09-28T20:54:00.166Z,7.20
2022-09-28T20:56:37.770Z,7.10
2022-09-28T20:59:07.905Z,7.10
2022-09-28T21:01:35.438Z,7.10
2022-09-28T21:04:04.418Z,7.10
2022-09-28T21:06:33.563Z,7.10
2022-09-28T21:09:01.043Z,7.20
2022-09-28T21:11:29.742Z,7.10
2022-09-28T21:14:01.819Z,7.10
2022-09-28T21:16:31.009Z,7.10
2022-09-28T21:18:58.124Z,7.10
2022-09-28T21:21:25.979Z,7.10
2022-09-28T21:23:54.119Z,7.10
2022-09-28T21:26:29.771Z,7.10
2022-09-28T21:29:02.206Z,7.10
2022-09-28T21:31:32.761Z,7.10
2022-09-28T21:34:00.008Z,7.00
2022-09-28T21:36:26.999Z,7.00
2022-09-28T21:38:56.173Z,7.00
2022-09-28T21:41:26.317Z,7.00
2022-09-28T21:43:53.298Z,6.90
2022-09-28T21:46:20.326Z,7.00
2022-09-28T21:48:52.395Z,6.90
2022-09-28T21:51:19.427Z,7.00
2022-09-28T21:53:46.380Z,7.10
2022-09-28T21:56:13.375Z,7.10
2022-09-28T21:58:40.735Z,7.10
2022-09-28T22:01:09.466Z,7.10
2022-09-28T22:03:37.025Z,7.20
2022-09-28T22:06:04.766Z,7.10
2022-09-28T22:08:32.167Z,7.10
2022-09-28T22:11:01.406Z,7.10
2022-09-28T22:13:29.581Z,7.10
2022-09-28T22:15:58.813Z,7.10
2022-09-28T22:18:30.438Z,7.20
2022-09-28T22:21:02.097Z,7.00
2022-09-28T22:23:29.723Z,6.90
2022-09-28T22:26:07.709Z,6.90
2022-09-28T22:28:34.748Z,6.90
2022-09-28T22:31:02.102Z,7.00
2022-09-28T22:33:29.353Z,6.90
2022-09-28T22:35:56.337Z,6.50
2022-09-28T22:38:24.627Z,6.20
2022-09-28T22:40:54.665Z,6.10
2022-09-28T22:43:25.778Z,6.00
2022-09-28T22:46:02.165Z,6.00
2022-09-28T22:48:29.415Z,6.10
2022-09-28T22:50:56.330Z,6.20
2022-09-28T22:53:23.269Z,6.40
2022-09-28T22:55:50.204Z,6.60
2022-09-28T22:58:17.150Z,6.70
2022-09-28T23:00:44.531Z,6.70
2022-09-28T23:03:11.633Z,6.80
2022-09-28T23:05:38.559Z,6.80
2022-09-28T23:08:05.482Z,6.80
2022-09-28T23:10:32.366Z,6.80
2022-09-28T23:13:00.375Z,6.80
2022-09-28T23:15:28.938Z,6.70
2022-09-28T23:17:55.992Z,6.80
2022-09-28T23:20:23.630Z,6.80
2022-09-28T23:22:50.866Z,6.90
2022-09-28T23:25:18.818Z,6.90
2022-09-28T23:27:49.997Z,6.90
2022-09-28T23:30:19.142Z,6.90
2022-09-28T23:32:46.566Z,6.90
2022-09-28T23:35:14.422Z,7.00
2022-09-28T23:37:41.329Z,7.00
2022-09-28T23:40:08.424Z,7.00
2022-09-28T23:42:35.611Z,7.10
2022-09-28T23:45:02.531Z,7.00
2022-09-28T23:47:29.406Z,7.00
2022-09-28T23:49:56.258Z,7.10
2022-09-28T23:52:23.146Z,7.10
2022-09-28T23:54:49.999Z,7.10
2022-09-28T23:57:16.892Z,7.20
2022-09-28T23:59:43.818Z,7.30
